Time;durP1;ratioP1;P1;durP2;ratioP2;P2;SDS_P1;SDS_P2;PMS_P1;PMS_P2;Temp;Humidity;BMP_temperature;BMP_pressure;BME280_temperature;BME280_humidity;BME280_pressure;Samples;Min_cycle;Max_cycle;Signal;HPM_P1;HPM_P2
2022/04/25 00:00:19;;;;;;;0.20;0.20;;;9.40;99.90;;;;;;4906557;29;20213;-80
2022/04/25 00:02:45;;;;;;;0.20;0.20;;;9.60;99.90;;;;;;4887321;29;20206;-81
2022/04/25 00:05:12;;;;;;;0.20;0.20;;;9.60;99.90;;;;;;4899738;29;20213;-81
2022/04/25 00:07:39;;;;;;;0.30;0.20;;;9.50;99.90;;;;;;4903750;29;20213;-81
2022/04/25 00:10:06;;;;;;;0.20;0.20;;;9.40;99.90;;;;;;4910455;29;20234;-81
2022/04/25 00:12:34;;;;;;;0.40;0.40;;;9.30;99.90;;;;;;4916705;29;20223;-81
2022/04/25 00:15:01;;;;;;;2.45;2.35;;;9.20;99.90;;;;;;4913970;29;20215;-80
2022/04/25 00:17:28;;;;;;;0.20;0.20;;;9.20;99.90;;;;;;4907760;29;20278;-81
2022/04/25 00:19:55;;;;;;;0.30;0.30;;;9.20;99.90;;;;;;4915877;29;20238;-81
2022/04/25 00:22:21;;;;;;;0.20;0.20;;;9.20;99.90;;;;;;4916023;29;20229;-81
2022/04/25 00:24:50;;;;;;;0.20;0.20;;;9.20;99.90;;;;;;4915718;29;20208;-81
2022/04/25 00:27:17;;;;;;;0.20;0.20;;;9.10;99.90;;;;;;4900977;29;20214;-81
2022/04/25 00:29:45;;;;;;;0.30;0.30;;;9.00;99.90;;;;;;4908495;29;20231;-80
2022/04/25 00:32:11;;;;;;;0.20;0.20;;;8.90;99.90;;;;;;4900991;29;20211;-81
2022/04/25 00:34:38;;;;;;;0.20;0.20;;;8.90;99.90;;;;;;4906987;29;20212;-81
2022/04/25 00:37:05;;;;;;;0.40;0.40;;;8.90;99.90;;;;;;4905857;29;20208;-81
2022/04/25 00:39:32;;;;;;;0.30;0.30;;;8.90;99.90;;;;;;4911884;29;20252;-80
2022/04/25 00:41:59;;;;;;;0.75;0.75;;;8.90;99.90;;;;;;4900333;29;20212;-80
2022/04/25 00:44:26;;;;;;;0.50;0.50;;;8.90;99.90;;;;;;4899363;29;20207;-80
2022/04/25 00:46:55;;;;;;;0.20;0.20;;;8.90;99.90;;;;;;4899020;29;20216;-81
2022/04/25 00:49:22;;;;;;;0.65;0.65;;;9.00;99.90;;;;;;4914843;29;20229;-80
2022/04/25 00:51:51;;;;;;;0.20;0.20;;;8.90;99.90;;;;;;4916811;29;20213;-81
2022/04/25 00:54:18;;;;;;;0.20;0.20;;;8.90;99.90;;;;;;4910457;29;20219;-81
2022/04/25 00:56:46;;;;;;;0.40;0.40;;;8.90;99.90;;;;;;4906996;29;20210;-81
2022/04/25 00:59:15;;;;;;;0.20;0.20;;;8.90;99.90;;;;;;4901076;29;20228;-82
2022/04/25 01:01:42;;;;;;;4.00;3.90;;;8.90;99.90;;;;;;4899877;29;20206;-81
2022/04/25 01:04:10;;;;;;;13.07;12.18;;;8.90;99.90;;;;;;4899792;29;20223;-81
2022/04/25 01:06:37;;;;;;;32.70;24.42;;;8.80;99.90;;;;;;4909328;29;20212;-82
2022/04/25 01:09:05;;;;;;;31.88;26.13;;;8.90;99.90;;;;;;4916554;29;20229;-81
2022/04/25 01:11:32;;;;;;;32.80;26.60;;;8.90;99.90;;;;;;4899442;29;20213;-81
2022/04/25 01:14:09;;;;;;;31.83;24.13;;;8.80;99.90;;;;;;4911077;29;20216;-82
2022/04/25 01:16:36;;;;;;;33.22;25.92;;;8.80;99.90;;;;;;4911977;29;20221;-82
2022/04/25 01:19:03;;;;;;;28.83;24.23;;;8.80;99.90;;;;;;4892080;29;20236;-82
2022/04/25 01:21:33;;;;;;;38.00;28.75;;;8.70;99.90;;;;;;4887280;29;20221;-81
2022/04/25 01:29:32;;;;;;;34.95;27.55;;;8.60;99.90;;;;;;4884099;29;20298;-82
2022/04/25 01:31:59;;;;;;;32.50;26.23;;;8.50;99.90;;;;;;4884823;29;20694;-81
2022/04/25 01:34:25;;;;;;;36.90;26.10;;;8.50;99.90;;;;;;4894452;29;20267;-81
2022/04/25 01:36:52;;;;;;;32.25;25.20;;;8.50;99.90;;;;;;4895024;29;20220;-81
2022/04/25 01:39:20;;;;;;;31.95;25.20;;;8.50;99.90;;;;;;4898453;29;20259;-81
2022/04/25 01:41:47;;;;;;;30.65;24.52;;;8.40;99.90;;;;;;4887758;29;20214;-81
2022/04/25 01:44:14;;;;;;;34.47;25.25;;;8.50;99.90;;;;;;4900879;29;20763;-81
2022/04/25 01:46:40;;;;;;;28.85;24.02;;;8.40;99.90;;;;;;4889130;29;20204;-81
2022/04/25 01:49:07;;;;;;;36.10;28.38;;;8.40;99.90;;;;;;4893538;29;20246;-82
2022/04/25 01:51:34;;;;;;;33.97;25.50;;;8.40;99.90;;;;;;4886786;29;20209;-81
2022/04/25 01:54:00;;;;;;;32.75;25.48;;;8.40;99.90;;;;;;4900350;29;20223;-81
2022/04/25 01:56:29;;;;;;;34.17;29.05;;;8.40;99.90;;;;;;4892605;29;20621;-82
2022/04/25 01:58:55;;;;;;;34.70;28.35;;;8.40;99.90;;;;;;4900784;29;20223;-82
2022/04/25 02:01:22;;;;;;;32.80;25.85;;;8.40;99.90;;;;;;4886452;29;20219;-81
2022/04/25 02:03:49;;;;;;;33.58;28.23;;;8.40;99.90;;;;;;4896518;29;20208;-81
2022/04/25 02:06:15;;;;;;;37.03;30.45;;;8.30;99.90;;;;;;4904503;29;20216;-80
2022/04/25 02:08:42;;;;;;;33.17;27.65;;;8.20;99.90;;;;;;4899282;29;20220;-81
2022/04/25 02:11:21;;;;;;;40.08;27.75;;;8.20;99.90;;;;;;4897128;29;20219;-81
2022/04/25 02:13:51;;;;;;;40.90;29.60;;;8.20;99.90;;;;;;4914637;29;20218;-81
2022/04/25 02:16:18;;;;;;;34.83;29.23;;;8.10;99.90;;;;;;4914766;29;20232;-81
2022/04/25 02:18:45;;;;;;;40.63;31.65;;;8.10;99.90;;;;;;4906665;29;20238;-81
2022/04/25 02:21:12;;;;;;;40.67;30.38;;;8.10;99.90;;;;;;4912872;29;20215;-81
2022/04/25 02:23:39;;;;;;;38.58;30.13;;;8.10;99.90;;;;;;4897367;29;20204;-81
2022/04/25 02:26:07;;;;;;;38.33;29.08;;;8.10;99.90;;;;;;4902560;29;20207;-81
2022/04/25 02:28:35;;;;;;;38.35;28.50;;;8.10;99.90;;;;;;4907291;29;20223;-81
2022/04/25 02:31:04;;;;;;;38.88;29.58;;;8.10;99.90;;;;;;4913647;29;20236;-81
2022/04/25 02:33:31;;;;;;;43.50;30.80;;;8.00;99.90;;;;;;4914086;29;20231;-80
2022/04/25 02:35:58;;;;;;;36.10;28.65;;;8.00;99.90;;;;;;4904980;29;20223;-80
2022/04/25 02:38:24;;;;;;;37.30;29.52;;;8.00;99.90;;;;;;4904743;29;20237;-81
2022/04/25 02:41:04;;;;;;;37.08;28.13;;;7.90;99.90;;;;;;4908032;29;20208;-81
2022/04/25 02:43:32;;;;;;;36.22;29.33;;;7.90;99.90;;;;;;4907023;29;20234;-81
2022/04/25 02:45:59;;;;;;;37.78;30.65;;;7.90;99.90;;;;;;4885472;29;20203;-81
2022/04/25 02:48:27;;;;;;;38.42;29.02;;;7.90;99.90;;;;;;4908753;29;20228;-82
2022/04/25 02:50:54;;;;;;;35.35;28.10;;;7.90;99.90;;;;;;4898127;29;20279;-82
2022/04/25 02:53:24;;;;;;;37.72;27.45;;;7.90;99.90;;;;;;4907578;29;20215;-82
2022/04/25 02:55:51;;;;;;;36.38;27.73;;;7.90;99.90;;;;;;4898811;29;20693;-81
2022/04/25 02:58:18;;;;;;;33.70;28.58;;;7.90;99.90;;;;;;4915321;29;20234;-82
2022/04/25 03:00:45;;;;;;;37.97;28.33;;;7.90;99.90;;;;;;4906164;29;20247;-81
2022/04/25 03:03:12;;;;;;;35.45;30.20;;;7.80;99.90;;;;;;4912456;29;20191;-81
2022/04/25 03:05:41;;;;;;;36.13;29.60;;;7.70;99.90;;;;;;4900510;29;20199;-81
2022/04/25 03:08:08;;;;;;;41.85;29.02;;;7.70;99.90;;;;;;4905638;29;20226;-81
2022/04/25 03:10:35;;;;;;;41.55;29.98;;;7.60;99.90;;;;;;4893297;29;20204;-82
2022/04/25 03:13:02;;;;;;;37.38;29.60;;;7.60;99.90;;;;;;4896037;29;20203;-82
2022/04/25 03:15:28;;;;;;;36.63;29.15;;;7.70;99.90;;;;;;4902534;29;20208;-81
2022/04/25 03:17:55;;;;;;;35.42;27.38;;;7.80;99.90;;;;;;4906286;29;20211;-81
2022/04/25 03:20:23;;;;;;;35.40;26.60;;;7.90;99.90;;;;;;4907713;29;20216;-81
2022/04/25 03:22:51;;;;;;;31.95;25.70;;;8.00;99.90;;;;;;4914067;29;20243;-80
2022/04/25 03:25:17;;;;;;;27.75;23.65;;;8.10;99.90;;;;;;4912027;29;20213;-80
2022/04/25 03:27:44;;;;;;;32.90;27.20;;;8.20;99.90;;;;;;4894120;29;20218;-81
2022/04/25 03:30:11;;;;;;;30.63;25.35;;;8.20;99.90;;;;;;4897816;29;20222;-81
2022/04/25 03:32:38;;;;;;;32.88;26.80;;;8.20;99.90;;;;;;4901592;29;20206;-81
2022/04/25 03:35:06;;;;;;;34.60;27.15;;;8.10;99.90;;;;;;4901945;29;20214;-81
2022/04/25 03:37:35;;;;;;;31.85;26.60;;;8.00;99.90;;;;;;4901001;29;20662;-81
2022/04/25 03:40:05;;;;;;;35.63;27.88;;;8.00;99.90;;;;;;4896358;29;20714;-81
2022/04/25 03:42:31;;;;;;;39.15;31.05;;;7.90;99.90;;;;;;4891194;29;20211;-81
2022/04/25 03:45:00;;;;;;;35.17;30.33;;;7.90;99.90;;;;;;4896178;29;20212;-81
2022/04/25 03:47:28;;;;;;;39.00;30.38;;;8.00;99.90;;;;;;4899251;29;20206;-81
2022/04/25 03:49:56;;;;;;;36.53;30.05;;;7.90;99.90;;;;;;4882616;29;20236;-81
2022/04/25 03:52:23;;;;;;;38.20;31.10;;;7.90;99.90;;;;;;4887031;29;20624;-81
2022/04/25 03:57:36;;;;;;;33.30;25.25;;;8.10;99.90;;;;;;4893775;29;20211;-81
2022/04/25 04:00:05;;;;;;;39.35;29.92;;;8.20;99.90;;;;;;4882878;29;20227;-81
2022/04/25 04:02:32;;;;;;;34.03;25.58;;;8.30;99.90;;;;;;4891933;29;20215;-81
2022/04/25 04:04:58;;;;;;;31.83;26.05;;;8.40;99.90;;;;;;4883164;29;20208;-81
2022/04/25 04:07:25;;;;;;;28.52;25.20;;;8.40;99.90;;;;;;4897260;29;20208;-82
2022/04/25 04:09:52;;;;;;;30.27;25.67;;;8.40;99.90;;;;;;4892863;29;20227;-81
2022/04/25 04:12:20;;;;;;;33.33;24.52;;;8.50;99.90;;;;;;4895283;29;20592;-81
2022/04/25 04:14:48;;;;;;;26.75;23.85;;;8.50;99.90;;;;;;4892771;29;20216;-81
2022/04/25 04:17:17;;;;;;;30.88;25.17;;;8.50;99.90;;;;;;4898115;29;20729;-81
2022/04/25 04:19:46;;;;;;;30.05;24.92;;;8.60;99.90;;;;;;4901310;29;20232;-81
2022/04/25 04:22:13;;;;;;;30.50;26.65;;;8.60;99.90;;;;;;4896679;29;20223;-81
2022/04/25 04:24:40;;;;;;;28.83;25.13;;;8.70;99.90;;;;;;4892213;29;20234;-81
2022/04/25 04:27:08;;;;;;;37.30;29.65;;;8.70;99.90;;;;;;4886677;29;20212;-82
2022/04/25 04:29:35;;;;;;;32.63;27.33;;;8.70;99.90;;;;;;4901854;29;20264;-82
2022/04/25 04:32:06;;;;;;;33.38;26.85;;;8.80;99.90;;;;;;4886783;29;20216;-82
2022/04/25 04:34:33;;;;;;;31.00;26.92;;;8.90;99.90;;;;;;4885687;29;20212;-81
2022/04/25 04:37:00;;;;;;;33.33;26.25;;;8.90;99.90;;;;;;4894168;29;20429;-81
2022/04/25 04:39:27;;;;;;;33.08;28.02;;;8.90;99.90;;;;;;4912012;29;20232;-81
2022/04/25 04:41:54;;;;;;;34.65;29.15;;;8.90;99.90;;;;;;4906905;29;20200;-81
2022/04/25 04:44:20;;;;;;;42.03;30.58;;;8.90;99.90;;;;;;4897391;29;20217;-82
2022/04/25 04:46:47;;;;;;;36.28;28.58;;;8.70;99.90;;;;;;4906984;29;20394;-81
2022/04/25 04:49:16;;;;;;;35.22;25.48;;;8.80;99.90;;;;;;4894122;29;20544;-81
2022/04/25 04:51:43;;;;;;;38.00;29.20;;;9.00;99.90;;;;;;4911144;29;20216;-81
2022/04/25 04:54:10;;;;;;;36.92;29.73;;;9.10;99.90;;;;;;4905615;29;20216;-81
2022/04/25 04:56:37;;;;;;;30.75;26.38;;;9.20;99.90;;;;;;4909859;29;20210;-81
2022/04/25 04:59:05;;;;;;;37.63;29.80;;;9.30;99.90;;;;;;4897085;29;20619;-81
2022/04/25 05:01:32;;;;;;;36.13;28.10;;;9.30;99.90;;;;;;4896156;29;20200;-81
2022/04/25 05:03:59;;;;;;;38.40;30.50;;;9.40;99.90;;;;;;4893762;29;20679;-81
2022/04/25 05:06:27;;;;;;;43.83;31.98;;;9.40;99.90;;;;;;4890946;29;20213;-81
2022/04/25 05:08:54;;;;;;;41.00;31.27;;;9.40;99.90;;;;;;4905571;29;20231;-81
2022/04/25 05:11:21;;;;;;;35.92;30.30;;;9.30;99.90;;;;;;4897686;29;20212;-82
2022/04/25 05:13:48;;;;;;;41.85;31.52;;;9.40;99.90;;;;;;4899672;29;20221;-82
2022/04/25 05:16:15;;;;;;;32.40;28.52;;;9.50;99.90;;;;;;4894501;29;20234;-82
2022/04/25 05:18:44;;;;;;;33.65;28.40;;;9.60;99.90;;;;;;4897456;29;20221;-82
2022/04/25 05:21:13;;;;;;;37.67;29.60;;;9.70;99.90;;;;;;4894974;29;20292;-82
2022/04/25 05:23:42;;;;;;;38.50;31.03;;;9.80;99.90;;;;;;4898172;29;20470;-81
2022/04/25 05:26:08;;;;;;;37.63;29.55;;;9.90;99.90;;;;;;4896122;29;20532;-80
2022/04/25 05:28:35;;;;;;;35.40;29.77;;;10.10;99.90;;;;;;5057652;23;20223;-82
2022/04/25 05:31:02;;;;;;;35.95;29.75;;;10.20;99.90;;;;;;4940519;29;20442;-81
2022/04/25 05:33:29;;;;;;;33.50;28.38;;;10.20;99.90;;;;;;4948143;29;20212;-81
2022/04/25 05:35:56;;;;;;;29.55;26.17;;;10.30;99.90;;;;;;4949411;29;20221;-81
2022/04/25 05:38:23;;;;;;;32.67;26.70;;;10.30;99.90;;;;;;4946906;29;20236;-81
2022/04/25 05:40:52;;;;;;;36.10;31.27;;;10.30;99.90;;;;;;4929901;29;20257;-81
2022/04/25 05:43:19;;;;;;;34.80;31.00;;;10.20;99.90;;;;;;4931414;29;20452;-81
2022/04/25 05:45:47;;;;;;;34.45;30.10;;;10.30;99.90;;;;;;4917456;29;20465;-81
2022/04/25 05:53:43;;;;;;;34.80;27.20;;;10.50;99.90;;;;;;4912530;29;20460;-81
2022/04/25 05:56:11;;;;;;;35.70;27.20;;;10.40;99.90;;;;;;4916565;29;20455;-80
2022/04/25 05:58:38;;;;;;;34.83;29.13;;;10.60;99.90;;;;;;4915564;29;20538;-81
2022/04/25 06:01:05;;;;;;;35.67;28.50;;;10.70;99.90;;;;;;4917100;29;20489;-82
2022/04/25 06:03:31;;;;;;;31.17;26.87;;;10.50;99.90;;;;;;4922689;29;20445;-81
2022/04/25 06:05:58;;;;;;;28.67;25.20;;;10.50;99.90;;;;;;4919190;29;20459;-81
2022/04/25 06:08:25;;;;;;;28.77;25.63;;;10.70;99.90;;;;;;4921161;29;20484;-80
2022/04/25 06:10:51;;;;;;;30.07;25.50;;;10.90;99.90;;;;;;4926556;29;20845;-81
2022/04/25 06:13:19;;;;;;;26.97;23.63;;;11.00;99.90;;;;;;4916073;29;20453;-81
2022/04/25 06:15:46;;;;;;;31.33;26.80;;;11.20;99.90;;;;;;4917162;29;20454;-81
2022/04/25 06:18:13;;;;;;;30.03;24.80;;;11.30;99.90;;;;;;4919537;29;20556;-81
2022/04/25 06:20:39;;;;;;;24.20;21.60;;;11.40;99.90;;;;;;4919110;29;20485;-81
2022/04/25 06:23:06;;;;;;;25.30;22.63;;;11.50;99.90;;;;;;4916829;29;20454;-81
2022/04/25 06:25:33;;;;;;;24.97;22.33;;;11.70;99.90;;;;;;4912163;29;20466;-80
2022/04/25 06:28:01;;;;;;;25.03;22.20;;;11.80;99.90;;;;;;4917989;29;20462;-81
2022/04/25 06:30:32;;;;;;;24.13;20.87;;;11.70;99.90;;;;;;4942861;23;20497;-85
2022/04/25 06:32:59;;;;;;;22.07;19.90;;;11.60;99.90;;;;;;4952251;29;20465;-87
2022/04/25 06:35:27;;;;;;;23.30;20.90;;;11.70;99.90;;;;;;4944390;29;20453;-81
2022/04/25 06:37:54;;;;;;;22.10;19.90;;;11.80;99.90;;;;;;4924914;29;20822;-81
2022/04/25 06:40:21;;;;;;;22.17;18.57;;;11.80;99.90;;;;;;4916095;29;20501;-80
2022/04/25 06:42:49;;;;;;;25.27;22.43;;;11.70;99.90;;;;;;4905672;29;20513;-81
2022/04/25 06:45:16;;;;;;;24.20;21.70;;;11.70;99.90;;;;;;4905573;29;20461;-82
2022/04/25 06:47:44;;;;;;;21.20;18.43;;;11.70;99.90;;;;;;4906497;29;20458;-81
2022/04/25 06:50:12;;;;;;;21.60;19.40;;;11.70;99.90;;;;;;4904780;29;20483;-81
2022/04/25 06:52:39;;;;;;;20.73;18.20;;;11.90;99.90;;;;;;4921526;29;20466;-82
2022/04/25 06:55:07;;;;;;;21.40;19.30;;;12.10;99.90;;;;;;4923543;29;20541;-86
2022/04/25 06:57:34;;;;;;;18.57;16.70;;;12.40;99.90;;;;;;4921437;29;20473;-87
2022/04/25 07:00:01;;;;;;;19.57;17.60;;;12.60;99.90;;;;;;4920918;29;20501;-85
2022/04/25 07:02:28;;;;;;;18.80;16.83;;;12.80;99.90;;;;;;4922253;29;20880;-84
2022/04/25 07:04:56;;;;;;;18.27;16.47;;;12.70;99.90;;;;;;4921677;29;20462;-87
2022/04/25 07:07:25;;;;;;;19.60;17.70;;;12.80;99.90;;;;;;4923063;29;20451;-85
2022/04/25 07:09:52;;;;;;;16.87;15.17;;;12.80;99.90;;;;;;4921774;29;20474;-84
2022/04/25 07:12:18;;;;;;;16.17;14.53;;;12.90;99.90;;;;;;4922653;29;20466;-85
2022/04/25 07:14:45;;;;;;;17.70;15.97;;;12.90;99.90;;;;;;4922716;29;20462;-84
2022/04/25 07:17:14;;;;;;;17.13;15.43;;;13.00;99.90;;;;;;4924345;29;20465;-83
2022/04/25 07:19:41;;;;;;;16.30;14.80;;;13.20;99.90;;;;;;4923117;29;20553;-85
2022/04/25 07:30:24;;;;;;;16.03;14.43;;;13.80;99.90;;;;;;4925330;29;20504;-85
2022/04/25 07:32:51;;;;;;;19.30;17.40;;;13.90;99.90;;;;;;4921788;29;20541;-86
2022/04/25 07:35:18;;;;;;;19.50;17.70;;;14.00;99.90;;;;;;4915141;29;20494;-85
2022/04/25 07:37:47;;;;;;;18.37;16.67;;;13.90;99.90;;;;;;4905936;29;20470;-85
2022/04/25 07:40:15;;;;;;;16.50;14.93;;;14.00;99.90;;;;;;4907342;29;20495;-85
2022/04/25 07:45:26;;;;;;;15.50;14.10;;;14.10;99.90;;;;;;4929435;29;20450;-86
2022/04/25 07:48:02;;;;;;;17.47;15.90;;;14.20;99.90;;;;;;4929584;29;20886;-85
2022/04/25 07:50:42;;;;;;;17.23;15.73;;;14.00;99.90;;;;;;4927270;29;20489;-85
2022/04/25 07:53:31;;;;;;;17.67;15.97;;;13.50;99.90;;;;;;4929336;29;20457;-86
2022/04/25 07:55:58;;;;;;;18.90;17.20;;;13.50;99.90;;;;;;4911257;29;20454;-85
2022/04/25 07:58:34;;;;;;;17.10;15.30;;;13.70;99.90;;;;;;4910243;29;20470;-85
2022/04/25 08:03:59;;;;;;;17.80;14.53;;;13.50;99.90;;;;;;4907622;29;20519;-86
2022/04/25 08:09:47;;;;;;;16.63;14.93;;;13.80;99.90;;;;;;4922056;29;20486;-85
2022/04/25 08:18:35;;;;;;;15.30;13.90;;;14.30;99.90;;;;;;4915520;29;20445;-84
2022/04/25 08:21:02;;;;;;;17.13;15.53;;;14.30;99.90;;;;;;4926213;29;20852;-85
2022/04/25 08:23:29;;;;;;;15.80;14.27;;;14.60;99.90;;;;;;4926457;29;20466;-85
2022/04/25 08:25:57;;;;;;;14.07;12.80;;;14.80;99.90;;;;;;4925225;29;20470;-85
2022/04/25 08:28:25;;;;;;;16.03;14.47;;;14.90;99.90;;;;;;4919924;29;20462;-86
2022/04/25 08:30:52;;;;;;;16.63;15.10;;;14.80;99.90;;;;;;4919439;29;20569;-84
2022/04/25 08:33:19;;;;;;;17.63;15.87;;;14.80;99.90;;;;;;4925379;29;20455;-85
2022/04/25 08:35:45;;;;;;;16.67;15.17;;;14.80;99.90;;;;;;4939009;29;20490;-86
2022/04/25 08:38:12;;;;;;;18.33;16.63;;;14.90;99.90;;;;;;4941100;29;20455;-86
2022/04/25 08:40:41;;;;;;;16.60;15.10;;;14.80;99.90;;;;;;4919559;29;22127;-84
2022/04/25 08:43:13;;;;;;;16.93;15.23;;;14.60;99.90;;;;;;4925974;29;20450;-85
2022/04/25 08:45:40;;;;;;;16.77;15.17;;;14.50;99.90;;;;;;4925994;29;20501;-86
2022/04/25 08:48:09;;;;;;;16.77;15.10;;;14.60;99.90;;;;;;4918302;29;20460;-85
2022/04/25 08:50:37;;;;;;;18.53;16.63;;;14.50;99.90;;;;;;4913073;29;20482;-85
2022/04/25 08:53:07;;;;;;;17.23;15.53;;;14.60;99.90;;;;;;4907809;29;20812;-86
2022/04/25 08:55:34;;;;;;;17.30;15.70;;;14.60;99.90;;;;;;4927612;29;20455;-86
2022/04/25 08:58:03;;;;;;;16.80;15.20;;;14.70;99.90;;;;;;4918276;29;20451;-87
2022/04/25 09:00:31;;;;;;;18.50;16.80;;;14.70;99.90;;;;;;4920605;29;20643;-85
2022/04/25 09:02:59;;;;;;;15.03;13.73;;;14.80;99.90;;;;;;4927313;29;20465;-85
2022/04/25 09:05:27;;;;;;;18.43;16.63;;;14.80;99.90;;;;;;4926682;29;20465;-84
2022/04/25 09:07:53;;;;;;;18.83;17.00;;;14.70;99.90;;;;;;4919830;29;20463;-83
2022/04/25 09:10:21;;;;;;;18.40;16.60;;;14.70;99.90;;;;;;4907739;29;20476;-84
2022/04/25 09:12:49;;;;;;;16.97;15.27;;;14.80;99.90;;;;;;4908539;29;20454;-83
2022/04/25 09:15:18;;;;;;;16.87;15.40;;;14.90;99.90;;;;;;4910393;29;20534;-84
2022/04/25 09:17:47;;;;;;;20.23;18.20;;;14.80;99.90;;;;;;4908341;29;20465;-82
2022/04/25 09:20:14;;;;;;;20.10;18.10;;;14.80;99.90;;;;;;4907447;29;20472;-81
2022/04/25 09:22:41;;;;;;;20.87;18.57;;;14.70;99.90;;;;;;4924752;29;20505;-82
2022/04/25 09:25:09;;;;;;;18.83;16.87;;;14.50;99.90;;;;;;4924063;29;20510;-80
2022/04/25 09:27:37;;;;;;;18.03;16.00;;;14.30;99.90;;;;;;4925413;29;20466;-84
2022/04/25 09:30:16;;;;;;;17.60;15.90;;;14.30;99.90;;;;;;4925522;29;20491;-85
2022/04/25 09:32:43;;;;;;;17.47;15.77;;;14.30;99.90;;;;;;4926651;29;21217;-86
2022/04/25 09:35:29;;;;;;;21.30;19.20;;;14.20;99.90;;;;;;4926630;29;20451;-87
2022/04/25 09:37:59;;;;;;;20.37;18.47;;;14.00;99.90;;;;;;4920235;29;20471;-88
2022/04/25 09:40:39;;;;;;;18.97;17.00;;;13.90;99.90;;;;;;4912090;29;20495;-85
2022/04/25 09:43:08;;;;;;;18.37;16.57;;;14.10;99.90;;;;;;4911194;29;20550;-86
2022/04/25 09:45:37;;;;;;;19.57;17.67;;;14.40;99.90;;;;;;4926012;29;20491;-82
2022/04/25 09:48:09;;;;;;;18.40;16.70;;;14.70;99.90;;;;;;4918409;29;20849;-82
2022/04/25 09:50:38;;;;;;;18.40;16.50;;;15.00;99.90;;;;;;4908745;29;20480;-80
2022/04/25 09:53:06;;;;;;;17.53;15.93;;;15.30;99.90;;;;;;4919331;29;20547;-85
2022/04/25 09:55:35;;;;;;;17.63;16.00;;;15.60;99.90;;;;;;4915927;29;20462;-84
2022/04/25 09:58:17;;;;;;;18.67;16.97;;;15.90;99.90;;;;;;4912347;29;20460;-84
2022/04/25 10:00:45;;;;;;;18.30;16.70;;;16.40;99.90;;;;;;4911628;29;20487;-85
2022/04/25 10:03:12;;;;;;;18.07;16.20;;;16.40;98.50;;;;;;4910881;29;20464;-84
2022/04/25 10:05:42;;;;;;;20.57;18.63;;;16.60;99.10;;;;;;4911501;29;20465;-85
2022/04/25 10:08:10;;;;;;;15.73;14.20;;;16.60;98.00;;;;;;4911451;29;20461;-85
2022/04/25 10:10:41;;;;;;;16.23;14.83;;;16.80;98.40;;;;;;4912068;29;20477;-85
2022/04/25 10:13:11;;;;;;;16.77;15.27;;;16.90;98.90;;;;;;4912471;29;20461;-84
2022/04/25 10:15:39;;;;;;;16.90;15.27;;;17.10;98.50;;;;;;4912375;29;20513;-84
2022/04/25 10:18:06;;;;;;;16.67;15.20;;;17.40;98.90;;;;;;4912753;29;20457;-85
2022/04/25 10:20:36;;;;;;;16.80;15.20;;;17.60;97.70;;;;;;4911355;29;20489;-85
2022/04/25 10:23:04;;;;;;;18.70;17.07;;;17.90;97.50;;;;;;4913315;29;20867;-84
2022/04/25 10:25:31;;;;;;;17.47;15.97;;;17.90;97.10;;;;;;4913221;29;20837;-85
2022/04/25 10:28:00;;;;;;;17.50;15.87;;;18.00;96.80;;;;;;4911734;29;20456;-84
2022/04/25 10:30:33;;;;;;;15.53;14.10;;;18.10;96.90;;;;;;4911648;29;20483;-85
2022/04/25 10:33:17;;;;;;;15.97;14.63;;;18.40;97.00;;;;;;4911863;29;20454;-85
2022/04/25 10:35:45;;;;;;;16.27;14.80;;;18.60;96.80;;;;;;4912401;29;20447;-85
2022/04/25 10:38:50;;;;;;;18.47;16.97;;;18.70;93.50;;;;;;4912486;29;20457;-85
2022/04/25 10:44:28;;;;;;;15.50;14.10;;;18.60;93.10;;;;;;4911058;29;20458;-84
2022/04/25 10:47:11;;;;;;;16.80;15.30;;;18.70;93.70;;;;;;4912729;29;20454;-85
2022/04/25 10:49:40;;;;;;;16.00;14.50;;;18.00;92.60;;;;;;4911360;29;20839;-85
2022/04/25 10:52:53;;;;;;;15.40;13.80;;;17.30;93.70;;;;;;4911139;29;20445;-84
2022/04/25 10:55:26;;;;;;;16.00;14.60;;;17.50;95.30;;;;;;4910938;29;20460;-85
2022/04/25 10:58:19;;;;;;;15.17;13.97;;;17.90;95.50;;;;;;4911374;29;20524;-84
2022/04/25 11:00:54;;;;;;;16.43;14.93;;;18.20;94.40;;;;;;4910467;29;21019;-85
2022/04/25 11:03:31;;;;;;;16.17;14.70;;;18.10;92.70;;;;;;4911013;29;20454;-85
2022/04/25 11:06:06;;;;;;;14.57;13.30;;;18.00;93.40;;;;;;4911141;29;20525;-85
2022/04/25 11:08:35;;;;;;;16.03;14.53;;;18.20;92.60;;;;;;4911659;29;20470;-85
2022/04/25 11:11:18;;;;;;;15.87;14.47;;;17.20;91.70;;;;;;4910260;29;20483;-84
2022/04/25 11:14:10;;;;;;;15.77;14.37;;;16.80;93.30;;;;;;4910840;29;20460;-84
2022/04/25 11:16:37;;;;;;;14.80;13.40;;;16.90;93.70;;;;;;4911054;29;20456;-85
2022/04/25 11:19:13;;;;;;;13.80;12.40;;;16.60;93.80;;;;;;4911437;29;20464;-84
2022/04/25 11:21:46;;;;;;;14.80;13.50;;;16.20;93.60;;;;;;4910836;29;20494;-85
2022/04/25 11:24:30;;;;;;;13.13;12.13;;;16.00;93.70;;;;;;4909388;29;20476;-85
2022/04/25 11:27:00;;;;;;;15.10;13.70;;;15.80;93.90;;;;;;4909254;29;20512;-84
2022/04/25 11:29:27;;;;;;;15.43;14.13;;;14.90;94.60;;;;;;4908597;29;20447;-84
2022/04/25 11:32:24;;;;;;;15.27;14.03;;;14.40;96.20;;;;;;4908538;29;20446;-84
2022/04/25 11:34:51;;;;;;;14.63;13.23;;;14.20;96.60;;;;;;4908512;29;20483;-84
2022/04/25 11:37:18;;;;;;;14.57;13.13;;;13.90;98.10;;;;;;4908309;29;20456;-84
2022/04/25 11:39:57;;;;;;;15.73;14.37;;;13.80;99.90;;;;;;4909243;29;20475;-85
2022/04/25 11:42:27;;;;;;;15.63;14.10;;;13.50;99.90;;;;;;4907745;29;20547;-84
2022/04/25 11:44:55;;;;;;;14.50;13.23;;;13.40;99.90;;;;;;4908215;29;20447;-85
2022/04/25 11:47:22;;;;;;;15.70;14.20;;;13.10;99.90;;;;;;4908372;29;20463;-86
2022/04/25 11:49:56;;;;;;;15.60;14.00;;;13.00;99.90;;;;;;4902640;29;20463;-85
2022/04/25 11:52:23;;;;;;;16.47;14.80;;;12.80;99.90;;;;;;4900189;29;20902;-86
2022/04/25 11:54:50;;;;;;;19.83;15.93;;;12.50;99.90;;;;;;4899406;29;20466;-86
2022/04/25 11:57:17;;;;;;;20.53;18.43;;;12.30;99.90;;;;;;4900047;29;20491;-85
2022/04/25 11:59:45;;;;;;;18.80;17.00;;;12.20;99.90;;;;;;4901197;29;20897;-87
2022/04/25 12:02:12;;;;;;;20.73;18.60;;;12.20;99.90;;;;;;4915098;29;20510;-84
2022/04/25 12:04:40;;;;;;;19.40;17.50;;;12.20;99.90;;;;;;4921646;29;20475;-84
2022/04/25 12:07:08;;;;;;;23.53;20.70;;;12.30;99.90;;;;;;4911286;29;20473;-85
2022/04/25 12:18:13;;;;;;;21.47;19.47;;;12.40;99.90;;;;;;4915123;29;20490;-85
2022/04/25 12:20:42;;;;;;;20.70;18.50;;;12.40;99.90;;;;;;4916577;29;20475;-84
2022/04/25 12:23:09;;;;;;;22.87;20.67;;;12.30;99.90;;;;;;4916631;29;20498;-86
2022/04/25 12:25:41;;;;;;;22.57;20.20;;;12.50;99.90;;;;;;4915191;29;20490;-85
2022/04/25 12:28:16;;;;;;;20.90;18.83;;;12.60;99.90;;;;;;4920025;29;20461;-84
2022/04/25 12:30:52;;;;;;;22.63;20.33;;;12.80;99.90;;;;;;5312578;23;20727;-80
2022/04/25 12:33:21;;;;;;;21.53;19.40;;;13.00;99.90;;;;;;4944455;29;20445;-80
2022/04/25 12:35:51;;;;;;;20.30;18.27;;;13.10;99.90;;;;;;4946409;29;20516;-80
2022/04/25 12:38:36;;;;;;;21.60;19.50;;;13.30;99.90;;;;;;4945684;29;20460;-80
2022/04/25 12:41:03;;;;;;;17.53;15.73;;;13.40;99.90;;;;;;4933877;29;20479;-80
2022/04/25 12:43:42;;;;;;;18.60;16.80;;;13.40;99.90;;;;;;4926372;29;20494;-83
2022/04/25 12:46:11;;;;;;;16.80;15.20;;;13.70;99.90;;;;;;4926365;29;20480;-83
2022/04/25 12:49:04;;;;;;;18.83;17.00;;;13.70;99.90;;;;;;4926118;29;20455;-83
2022/04/25 12:51:37;;;;;;;17.47;15.70;;;13.80;99.90;;;;;;4927323;29;20474;-84
2022/04/25 12:54:07;;;;;;;21.03;18.90;;;14.00;99.90;;;;;;4927954;29;20521;-83
2022/04/25 12:56:35;;;;;;;20.80;18.63;;;14.00;99.90;;;;;;4928226;29;20808;-80
2022/04/25 12:59:02;;;;;;;20.30;18.60;;;14.10;99.90;;;;;;4928701;29;20475;-80
2022/04/25 13:01:39;;;;;;;18.97;17.07;;;14.20;99.90;;;;;;4927960;29;20502;-80
2022/04/25 13:04:12;;;;;;;19.20;16.40;;;14.40;99.90;;;;;;4928011;29;20516;-80
2022/04/25 13:06:39;;;;;;;18.47;16.77;;;14.60;99.90;;;;;;4928174;29;20783;-82
2022/04/25 13:09:06;;;;;;;12.87;11.67;;;14.90;99.90;;;;;;4928795;29;20452;-81
2022/04/25 13:11:34;;;;;;;13.70;12.47;;;15.00;99.90;;;;;;4928489;29;20482;-81
2022/04/25 13:14:01;;;;;;;15.13;13.63;;;15.10;99.90;;;;;;4928082;29;20454;-81
2022/04/25 13:16:28;;;;;;;12.33;11.33;;;15.40;99.90;;;;;;4927356;29;20455;-81
2022/04/25 13:18:57;;;;;;;11.77;10.67;;;15.70;99.90;;;;;;4926682;29;20626;-81
2022/04/25 13:21:24;;;;;;;10.60;9.60;;;16.30;99.90;;;;;;4926030;29;20982;-81
2022/04/25 13:23:51;;;;;;;11.07;10.20;;;16.80;99.90;;;;;;4925624;29;20500;-81
2022/04/25 13:26:19;;;;;;;10.00;9.17;;;17.40;99.90;;;;;;4927117;29;20453;-81
2022/04/25 13:28:45;;;;;;;7.77;7.17;;;18.00;99.90;;;;;;4932972;29;20468;-81
2022/04/25 16:05:10;;;;;;;3.80;3.50;;;20.90;71.60;;;;;;4885955;29;20505;-82